sensor_id;sensor_type;location;lat;lon;timestamp;temperature;humidity
47857;DHT22;33618;49.972;8.242;2022-08-04T00:04:48;25.60;63.40
47857;DHT22;33618;49.972;8.242;2022-08-04T00:10:10;25.60;63.60
47857;DHT22;33618;49.972;8.242;2022-08-04T00:12:40;25.60;63.70
47857;DHT22;33618;49.972;8.242;2022-08-04T00:15:09;25.50;64.10
47857;DHT22;33618;49.972;8.242;2022-08-04T00:17:50;25.40;64.10
47857;DHT22;33618;49.972;8.242;2022-08-04T00:20:22;25.30;64.90
47857;DHT22;33618;49.972;8.242;2022-08-04T00:22:52;25.20;64.80
47857;DHT22;33618;49.972;8.242;2022-08-04T00:39:39;24.80;65.40
47857;DHT22;33618;49.972;8.242;2022-08-04T00:45:02;24.70;65.90
47857;DHT22;33618;49.972;8.242;2022-08-04T01:07:46;24.70;65.90
47857;DHT22;33618;49.972;8.242;2022-08-04T01:18:35;24.50;66.20
47857;DHT22;33618;49.972;8.242;2022-08-04T01:23:36;24.50;66.30
47857;DHT22;33618;49.972;8.242;2022-08-04T01:29:23;24.60;66.20
47857;DHT22;33618;49.972;8.242;2022-08-04T01:32:12;24.50;67.00
47857;DHT22;33618;49.972;8.242;2022-08-04T01:34:42;24.40;66.70
47857;DHT22;33618;49.972;8.242;2022-08-04T01:39:50;24.40;66.80
47857;DHT22;33618;49.972;8.242;2022-08-04T01:42:22;24.40;66.70
47857;DHT22;33618;49.972;8.242;2022-08-04T01:44:59;24.50;66.60
47857;DHT22;33618;49.972;8.242;2022-08-04T01:47:27;24.30;66.40
47857;DHT22;33618;49.972;8.242;2022-08-04T02:00:17;24.30;66.00
47857;DHT22;33618;49.972;8.242;2022-08-04T02:02:44;24.40;66.00
47857;DHT22;33618;49.972;8.242;2022-08-04T02:05:13;24.20;65.40
47857;DHT22;33618;49.972;8.242;2022-08-04T02:07:56;24.20;66.20
47857;DHT22;33618;49.972;8.242;2022-08-04T02:15:30;24.10;66.20
47857;DHT22;33618;49.972;8.242;2022-08-04T02:18:11;24.10;66.10
47857;DHT22;33618;49.972;8.242;2022-08-04T02:20:45;24.10;66.30
47857;DHT22;33618;49.972;8.242;2022-08-04T02:23:19;24.10;66.10
47857;DHT22;33618;49.972;8.242;2022-08-04T02:25:55;24.20;66.10
47857;DHT22;33618;49.972;8.242;2022-08-04T02:33:44;23.90;66.60
47857;DHT22;33618;49.972;8.242;2022-08-04T02:36:17;24.00;66.50
47857;DHT22;33618;49.972;8.242;2022-08-04T02:41:15;23.90;66.60
47857;DHT22;33618;49.972;8.242;2022-08-04T02:43:43;23.90;66.40
47857;DHT22;33618;49.972;8.242;2022-08-04T02:46:18;23.80;66.60
47857;DHT22;33618;49.972;8.242;2022-08-04T02:55:37;23.80;67.20
47857;DHT22;33618;49.972;8.242;2022-08-04T02:58:16;23.70;67.70
47857;DHT22;33618;49.972;8.242;2022-08-04T03:00:44;23.60;68.30
47857;DHT22;33618;49.972;8.242;2022-08-04T03:09:11;23.30;69.20
47857;DHT22;33618;49.972;8.242;2022-08-04T03:24:56;23.10;70.70
47857;DHT22;33618;49.972;8.242;2022-08-04T03:48:48;22.90;70.30
47857;DHT22;33618;49.972;8.242;2022-08-04T04:03:49;22.80;71.00
47857;DHT22;33618;49.972;8.242;2022-08-04T04:19:52;24.40;67.90
47857;DHT22;33618;49.972;8.242;2022-08-04T04:25:18;24.40;68.10
47857;DHT22;33618;49.972;8.242;2022-08-04T04:28:14;24.40;68.20
47857;DHT22;33618;49.972;8.242;2022-08-04T04:31:31;24.40;68.20
47857;DHT22;33618;49.972;8.242;2022-08-04T04:47:00;24.40;69.20
47857;DHT22;33618;49.972;8.242;2022-08-04T04:58:13;24.60;68.80
47857;DHT22;33618;49.972;8.242;2022-08-04T05:00:46;24.70;68.90
47857;DHT22;33618;49.972;8.242;2022-08-04T05:06:18;24.80;69.30
47857;DHT22;33618;49.972;8.242;2022-08-04T05:14:09;24.40;71.10
47857;DHT22;33618;49.972;8.242;2022-08-04T05:17:03;24.40;70.80
47857;DHT22;33618;49.972;8.242;2022-08-04T05:27:55;24.20;72.00
47857;DHT22;33618;49.972;8.242;2022-08-04T05:30:22;24.20;73.10
47857;DHT22;33618;49.972;8.242;2022-08-04T05:32:53;24.00;74.40
47857;DHT22;33618;49.972;8.242;2022-08-04T05:35:27;23.80;75.00
47857;DHT22;33618;49.972;8.242;2022-08-04T05:38:16;23.70;74.10
47857;DHT22;33618;49.972;8.242;2022-08-04T05:40:44;23.70;74.10
47857;DHT22;33618;49.972;8.242;2022-08-04T05:43:11;23.60;74.40
47857;DHT22;33618;49.972;8.242;2022-08-04T05:45:39;23.60;74.10
47857;DHT22;33618;49.972;8.242;2022-08-04T05:48:07;23.60;74.80
47857;DHT22;33618;49.972;8.242;2022-08-04T05:54:15;23.70;74.80
47857;DHT22;33618;49.972;8.242;2022-08-04T05:56:44;23.70;74.20
47857;DHT22;33618;49.972;8.242;2022-08-04T05:59:11;23.70;74.10
47857;DHT22;33618;49.972;8.242;2022-08-04T06:01:39;23.80;74.70
47857;DHT22;33618;49.972;8.242;2022-08-04T06:04:44;23.80;73.80
47857;DHT22;33618;49.972;8.242;2022-08-04T06:07:09;23.90;73.30
47857;DHT22;33618;49.972;8.242;2022-08-04T06:09:40;23.90;72.60
47857;DHT22;33618;49.972;8.242;2022-08-04T06:12:11;24.00;72.50
47857;DHT22;33618;49.972;8.242;2022-08-04T06:14:44;24.00;72.50
47857;DHT22;33618;49.972;8.242;2022-08-04T06:17:15;24.10;73.30
47857;DHT22;33618;49.972;8.242;2022-08-04T06:20:05;24.10;73.40
47857;DHT22;33618;49.972;8.242;2022-08-04T06:22:52;24.30;72.50
47857;DHT22;33618;49.972;8.242;2022-08-04T06:25:25;24.40;72.40
47857;DHT22;33618;49.972;8.242;2022-08-04T06:27:52;24.40;72.20
47857;DHT22;33618;49.972;8.242;2022-08-04T06:30:20;24.40;71.90
47857;DHT22;33618;49.972;8.242;2022-08-04T06:32:52;24.50;71.90
47857;DHT22;33618;49.972;8.242;2022-08-04T06:35:30;24.50;72.20
47857;DHT22;33618;49.972;8.242;2022-08-04T06:37:58;24.60;72.50
47857;DHT22;33618;49.972;8.242;2022-08-04T06:40:27;24.60;72.50
47857;DHT22;33618;49.972;8.242;2022-08-04T06:43:01;24.60;72.40
47857;DHT22;33618;49.972;8.242;2022-08-04T06:45:29;24.70;72.40
47857;DHT22;33618;49.972;8.242;2022-08-04T06:47:56;24.80;72.40
47857;DHT22;33618;49.972;8.242;2022-08-04T06:50:23;24.90;72.40
47857;DHT22;33618;49.972;8.242;2022-08-04T06:59:58;25.30;71.40
47857;DHT22;33618;49.972;8.242;2022-08-04T07:02:26;25.40;71.10
47857;DHT22;33618;49.972;8.242;2022-08-04T07:04:55;25.40;70.90
47857;DHT22;33618;49.972;8.242;2022-08-04T07:07:23;25.50;71.30
47857;DHT22;33618;49.972;8.242;2022-08-04T07:10:02;25.60;70.70
47857;DHT22;33618;49.972;8.242;2022-08-04T07:12:29;25.60;71.20
47857;DHT22;33618;49.972;8.242;2022-08-04T07:14:57;25.70;70.90
47857;DHT22;33618;49.972;8.242;2022-08-04T07:17:24;25.70;71.10
47857;DHT22;33618;49.972;8.242;2022-08-04T07:20:00;25.70;71.20
47857;DHT22;33618;49.972;8.242;2022-08-04T07:22:27;25.80;71.60
47857;DHT22;33618;49.972;8.242;2022-08-04T07:24:55;25.80;71.30
47857;DHT22;33618;49.972;8.242;2022-08-04T07:27:22;25.90;70.80
47857;DHT22;33618;49.972;8.242;2022-08-04T07:30:09;26.00;70.70
47857;DHT22;33618;49.972;8.242;2022-08-04T07:32:36;26.20;70.70
47857;DHT22;33618;49.972;8.242;2022-08-04T07:35:04;26.30;70.30
47857;DHT22;33618;49.972;8.242;2022-08-04T07:37:32;26.30;70.30
47857;DHT22;33618;49.972;8.242;2022-08-04T07:43:46;26.60;69.40
47857;DHT22;33618;49.972;8.242;2022-08-04T07:46:13;26.70;69.60
47857;DHT22;33618;49.972;8.242;2022-08-04T07:48:40;26.80;69.60
47857;DHT22;33618;49.972;8.242;2022-08-04T07:51:07;26.90;69.70
47857;DHT22;33618;49.972;8.242;2022-08-04T08:00:20;27.00;68.40
47857;DHT22;33618;49.972;8.242;2022-08-04T08:02:47;27.10;68.00
47857;DHT22;33618;49.972;8.242;2022-08-04T08:05:14;27.20;67.10
47857;DHT22;33618;49.972;8.242;2022-08-04T08:07:49;27.20;67.90
47857;DHT22;33618;49.972;8.242;2022-08-04T08:10:20;27.30;67.90
47857;DHT22;33618;49.972;8.242;2022-08-04T08:12:48;27.40;67.60
47857;DHT22;33618;49.972;8.242;2022-08-04T08:15:18;27.50;67.50
47857;DHT22;33618;49.972;8.242;2022-08-04T08:17:45;27.60;67.80
47857;DHT22;33618;49.972;8.242;2022-08-04T08:20:26;27.70;67.60
47857;DHT22;33618;49.972;8.242;2022-08-04T08:22:55;27.70;66.70
47857;DHT22;33618;49.972;8.242;2022-08-04T08:25:22;27.80;66.20
47857;DHT22;33618;49.972;8.242;2022-08-04T08:27:49;27.80;66.20
47857;DHT22;33618;49.972;8.242;2022-08-04T08:30:22;27.90;65.80
47857;DHT22;33618;49.972;8.242;2022-08-04T08:32:49;28.00;65.60
47857;DHT22;33618;49.972;8.242;2022-08-04T08:35:16;28.00;66.00
47857;DHT22;33618;49.972;8.242;2022-08-04T08:37:44;28.00;66.00
47857;DHT22;33618;49.972;8.242;2022-08-04T08:53:23;28.60;64.90
47857;DHT22;33618;49.972;8.242;2022-08-04T08:56:35;28.60;64.50
47857;DHT22;33618;49.972;8.242;2022-08-04T09:06:53;28.80;64.40
47857;DHT22;33618;49.972;8.242;2022-08-04T09:09:47;28.90;64.10
47857;DHT22;33618;49.972;8.242;2022-08-04T09:15:04;29.00;63.50
47857;DHT22;33618;49.972;8.242;2022-08-04T09:17:40;29.20;64.10
47857;DHT22;33618;49.972;8.242;2022-08-04T09:22:49;29.30;64.20
47857;DHT22;33618;49.972;8.242;2022-08-04T09:25:27;29.40;63.90
47857;DHT22;33618;49.972;8.242;2022-08-04T09:28:06;29.60;62.80
47857;DHT22;33618;49.972;8.242;2022-08-04T09:33:17;29.90;63.90
47857;DHT22;33618;49.972;8.242;2022-08-04T09:39:10;30.50;62.00
47857;DHT22;33618;49.972;8.242;2022-08-04T09:48:21;31.00;62.30
47857;DHT22;33618;49.972;8.242;2022-08-04T09:50:52;31.40;61.70
47857;DHT22;33618;49.972;8.242;2022-08-04T10:01:19;32.30;61.50
47857;DHT22;33618;49.972;8.242;2022-08-04T10:03:50;32.60;61.20
47857;DHT22;33618;49.972;8.242;2022-08-04T10:06:31;32.70;59.70
47857;DHT22;33618;49.972;8.242;2022-08-04T10:11:32;32.90;59.40
47857;DHT22;33618;49.972;8.242;2022-08-04T10:19:35;33.00;58.70
47857;DHT22;33618;49.972;8.242;2022-08-04T10:24:59;33.40;58.20
47857;DHT22;33618;49.972;8.242;2022-08-04T10:30:15;33.70;57.20
47857;DHT22;33618;49.972;8.242;2022-08-04T10:32:48;33.60;56.80
47857;DHT22;33618;49.972;8.242;2022-08-04T10:35:18;33.50;57.00
47857;DHT22;33618;49.972;8.242;2022-08-04T10:37:59;33.70;56.50
47857;DHT22;33618;49.972;8.242;2022-08-04T10:49:42;34.00;56.30
47857;DHT22;33618;49.972;8.242;2022-08-04T10:52:13;34.10;54.40
47857;DHT22;33618;49.972;8.242;2022-08-04T10:57:33;34.30;54.60
47857;DHT22;33618;49.972;8.242;2022-08-04T11:00:12;34.30;53.90
47857;DHT22;33618;49.972;8.242;2022-08-04T11:02:44;34.50;54.50
47857;DHT22;33618;49.972;8.242;2022-08-04T11:07:43;34.90;55.70
47857;DHT22;33618;49.972;8.242;2022-08-04T11:10:10;35.00;54.20
47857;DHT22;33618;49.972;8.242;2022-08-04T11:12:38;35.10;53.10
47857;DHT22;33618;49.972;8.242;2022-08-04T11:15:15;35.30;53.20
47857;DHT22;33618;49.972;8.242;2022-08-04T11:17:49;35.50;52.80
47857;DHT22;33618;49.972;8.242;2022-08-04T11:20:29;35.70;53.10
47857;DHT22;33618;49.972;8.242;2022-08-04T11:23:05;35.90;52.30
47857;DHT22;33618;49.972;8.242;2022-08-04T11:30:36;36.70;52.70
47857;DHT22;33618;49.972;8.242;2022-08-04T11:35:51;36.80;51.20
47857;DHT22;33618;49.972;8.242;2022-08-04T11:38:22;36.60;51.80
47857;DHT22;33618;49.972;8.242;2022-08-04T11:40:57;36.70;50.90
47857;DHT22;33618;49.972;8.242;2022-08-04T11:43:34;36.90;52.30
47857;DHT22;33618;49.972;8.242;2022-08-04T11:50:13;37.60;51.80
47857;DHT22;33618;49.972;8.242;2022-08-04T11:52:45;37.60;50.30
47857;DHT22;33618;49.972;8.242;2022-08-04T11:55:13;37.60;49.60
47857;DHT22;33618;49.972;8.242;2022-08-04T11:57:42;37.70;49.60
47857;DHT22;33618;49.972;8.242;2022-08-04T12:00:13;37.70;49.90
47857;DHT22;33618;49.972;8.242;2022-08-04T12:05:29;37.50;50.00
47857;DHT22;33618;49.972;8.242;2022-08-04T12:18:22;37.90;48.60
47857;DHT22;33618;49.972;8.242;2022-08-04T12:20:54;38.00;47.70
47857;DHT22;33618;49.972;8.242;2022-08-04T12:23:40;38.30;48.30
47857;DHT22;33618;49.972;8.242;2022-08-04T12:26:09;38.80;47.60
47857;DHT22;33618;49.972;8.242;2022-08-04T12:28:39;39.40;47.40
47857;DHT22;33618;49.972;8.242;2022-08-04T12:31:27;39.50;47.30
47857;DHT22;33618;49.972;8.242;2022-08-04T12:33:58;39.30;46.50
47857;DHT22;33618;49.972;8.242;2022-08-04T12:39:19;39.40;47.30
47857;DHT22;33618;49.972;8.242;2022-08-04T12:44:19;39.10;46.10
47857;DHT22;33618;49.972;8.242;2022-08-04T12:54:03;37.70;45.40
47857;DHT22;33618;49.972;8.242;2022-08-04T12:56:30;37.40;46.20
47857;DHT22;33618;49.972;8.242;2022-08-04T12:59:05;37.30;46.30
47857;DHT22;33618;49.972;8.242;2022-08-04T13:01:38;37.20;46.80
47857;DHT22;33618;49.972;8.242;2022-08-04T13:04:26;37.20;45.80
47857;DHT22;33618;49.972;8.242;2022-08-04T13:07:14;37.40;46.90
47857;DHT22;33618;49.972;8.242;2022-08-04T13:09:42;37.30;46.20
47857;DHT22;33618;49.972;8.242;2022-08-04T13:12:13;37.20;47.20
47857;DHT22;33618;49.972;8.242;2022-08-04T13:14:40;37.30;46.70
47857;DHT22;33618;49.972;8.242;2022-08-04T13:17:10;36.90;47.30
47857;DHT22;33618;49.972;8.242;2022-08-04T13:19:38;37.00;46.60
47857;DHT22;33618;49.972;8.242;2022-08-04T13:22:07;36.90;47.00
47857;DHT22;33618;49.972;8.242;2022-08-04T13:24:34;36.60;46.70
47857;DHT22;33618;49.972;8.242;2022-08-04T13:27:23;36.40;46.90
47857;DHT22;33618;49.972;8.242;2022-08-04T13:29:50;36.30;46.80
47857;DHT22;33618;49.972;8.242;2022-08-04T13:32:29;36.30;47.10
47857;DHT22;33618;49.972;8.242;2022-08-04T13:34:58;36.20;48.70
47857;DHT22;33618;49.972;8.242;2022-08-04T13:37:29;36.20;47.50
47857;DHT22;33618;49.972;8.242;2022-08-04T13:39:57;36.10;46.90
47857;DHT22;33618;49.972;8.242;2022-08-04T13:42:25;36.30;48.50
47857;DHT22;33618;49.972;8.242;2022-08-04T13:44:54;36.30;48.60
47857;DHT22;33618;49.972;8.242;2022-08-04T13:51:10;36.20;49.30
47857;DHT22;33618;49.972;8.242;2022-08-04T13:53:38;36.30;48.30
47857;DHT22;33618;49.972;8.242;2022-08-04T13:56:06;36.30;48.60
47857;DHT22;33618;49.972;8.242;2022-08-04T13:58:34;36.30;48.30
47857;DHT22;33618;49.972;8.242;2022-08-04T14:01:08;36.30;49.70
47857;DHT22;33618;49.972;8.242;2022-08-04T14:03:40;36.40;48.20
47857;DHT22;33618;49.972;8.242;2022-08-04T14:11:30;36.40;49.70
47857;DHT22;33618;49.972;8.242;2022-08-04T14:14:20;36.50;49.50
47857;DHT22;33618;49.972;8.242;2022-08-04T14:16:54;36.40;48.70
47857;DHT22;33618;49.972;8.242;2022-08-04T14:19:22;36.30;48.30
47857;DHT22;33618;49.972;8.242;2022-08-04T14:21:54;36.10;48.70
47857;DHT22;33618;49.972;8.242;2022-08-04T14:24:25;35.90;49.30
47857;DHT22;33618;49.972;8.242;2022-08-04T14:26:52;36.10;49.00
47857;DHT22;33618;49.972;8.242;2022-08-04T14:29:24;36.30;49.50
47857;DHT22;33618;49.972;8.242;2022-08-04T14:34:52;36.40;49.00
47857;DHT22;33618;49.972;8.242;2022-08-04T14:37:18;36.50;49.90
47857;DHT22;33618;49.972;8.242;2022-08-04T14:39:49;36.60;50.40
47857;DHT22;33618;49.972;8.242;2022-08-04T14:42:44;37.00;50.30
47857;DHT22;33618;49.972;8.242;2022-08-04T14:51:43;39.20;49.10
47857;DHT22;33618;49.972;8.242;2022-08-04T14:54:13;40.00;48.40
47857;DHT22;33618;49.972;8.242;2022-08-04T14:56:51;40.50;48.80
47857;DHT22;33618;49.972;8.242;2022-08-04T14:59:19;40.70;48.40
47857;DHT22;33618;49.972;8.242;2022-08-04T15:01:46;41.10;48.30
47857;DHT22;33618;49.972;8.242;2022-08-04T15:04:27;41.50;47.30
47857;DHT22;33618;49.972;8.242;2022-08-04T15:06:54;41.70;48.00
47857;DHT22;33618;49.972;8.242;2022-08-04T15:09:21;41.50;46.00
47857;DHT22;33618;49.972;8.242;2022-08-04T15:11:49;40.90;46.40
47857;DHT22;33618;49.972;8.242;2022-08-04T15:14:17;40.40;46.20
47857;DHT22;33618;49.972;8.242;2022-08-04T15:17:05;40.80;46.80
47857;DHT22;33618;49.972;8.242;2022-08-04T15:20:01;41.30;46.90
47857;DHT22;33618;49.972;8.242;2022-08-04T15:22:29;41.70;45.90
47857;DHT22;33618;49.972;8.242;2022-08-04T15:24:56;42.00;46.70
47857;DHT22;33618;49.972;8.242;2022-08-04T15:27:24;41.60;45.80
47857;DHT22;33618;49.972;8.242;2022-08-04T15:29:55;41.00;45.40
47857;DHT22;33618;49.972;8.242;2022-08-04T15:32:27;40.60;46.40
47857;DHT22;33618;49.972;8.242;2022-08-04T15:35:00;40.00;46.50
47857;DHT22;33618;49.972;8.242;2022-08-04T15:37:27;39.40;47.10
47857;DHT22;33618;49.972;8.242;2022-08-04T15:40:03;38.70;47.70
47857;DHT22;33618;49.972;8.242;2022-08-04T15:42:37;38.40;48.50
47857;DHT22;33618;49.972;8.242;2022-08-04T15:51:29;37.70;47.60
47857;DHT22;33618;49.972;8.242;2022-08-04T15:59:02;38.10;48.60
47857;DHT22;33618;49.972;8.242;2022-08-04T16:01:31;37.90;49.20
47857;DHT22;33618;49.972;8.242;2022-08-04T16:03:59;37.70;48.20
47857;DHT22;33618;49.972;8.242;2022-08-04T16:06:49;37.50;48.00
47857;DHT22;33618;49.972;8.242;2022-08-04T16:09:21;37.50;48.30
47857;DHT22;33618;49.972;8.242;2022-08-04T16:11:50;37.50;48.50
47857;DHT22;33618;49.972;8.242;2022-08-04T16:14:29;37.30;48.60
47857;DHT22;33618;49.972;8.242;2022-08-04T16:17:15;37.50;48.60
47857;DHT22;33618;49.972;8.242;2022-08-04T16:19:45;37.60;49.00
47857;DHT22;33618;49.972;8.242;2022-08-04T16:25:19;37.80;48.90
47857;DHT22;33618;49.972;8.242;2022-08-04T16:30:58;38.40;48.30
47857;DHT22;33618;49.972;8.242;2022-08-04T16:33:26;38.50;48.00
47857;DHT22;33618;49.972;8.242;2022-08-04T16:36:11;38.90;49.40
47857;DHT22;33618;49.972;8.242;2022-08-04T16:41:36;39.10;48.30
47857;DHT22;33618;49.972;8.242;2022-08-04T16:51:04;39.50;46.90
47857;DHT22;33618;49.972;8.242;2022-08-04T16:53:36;39.80;47.70
47857;DHT22;33618;49.972;8.242;2022-08-04T16:56:27;40.00;47.80
47857;DHT22;33618;49.972;8.242;2022-08-04T16:58:54;40.10;47.70
47857;DHT22;33618;49.972;8.242;2022-08-04T17:01:21;39.80;47.20
47857;DHT22;33618;49.972;8.242;2022-08-04T17:03:59;39.60;47.40
47857;DHT22;33618;49.972;8.242;2022-08-04T17:06:37;39.50;47.60
47857;DHT22;33618;49.972;8.242;2022-08-04T17:11:37;39.30;47.50
47857;DHT22;33618;49.972;8.242;2022-08-04T17:14:04;38.80;47.30
47857;DHT22;33618;49.972;8.242;2022-08-04T17:16:33;38.70;48.20
47857;DHT22;33618;49.972;8.242;2022-08-04T17:19:00;38.70;47.80
47857;DHT22;33618;49.972;8.242;2022-08-04T17:21:28;38.40;47.40
47857;DHT22;33618;49.972;8.242;2022-08-04T17:23:57;38.10;48.00
47857;DHT22;33618;49.972;8.242;2022-08-04T17:26:42;37.70;47.30
47857;DHT22;33618;49.972;8.242;2022-08-04T17:29:17;37.00;46.50
47857;DHT22;33618;49.972;8.242;2022-08-04T17:31:45;36.60;46.10
47857;DHT22;33618;49.972;8.242;2022-08-04T17:34:14;36.20;46.30
47857;DHT22;33618;49.972;8.242;2022-08-04T17:37:02;35.80;46.50
47857;DHT22;33618;49.972;8.242;2022-08-04T17:39:51;35.50;46.80
47857;DHT22;33618;49.972;8.242;2022-08-04T17:45:26;35.90;47.50
47857;DHT22;33618;49.972;8.242;2022-08-04T17:52:19;36.00;48.20
47857;DHT22;33618;49.972;8.242;2022-08-04T17:55:06;35.90;48.10
47857;DHT22;33618;49.972;8.242;2022-08-04T17:57:46;35.90;48.00
47857;DHT22;33618;49.972;8.242;2022-08-04T18:00:18;35.70;48.10
47857;DHT22;33618;49.972;8.242;2022-08-04T18:02:52;35.60;48.80
47857;DHT22;33618;49.972;8.242;2022-08-04T18:05:27;35.50;48.40
47857;DHT22;33618;49.972;8.242;2022-08-04T18:08:15;35.40;48.80
47857;DHT22;33618;49.972;8.242;2022-08-04T18:11:02;35.40;48.80
47857;DHT22;33618;49.972;8.242;2022-08-04T18:13:30;35.40;49.00
47857;DHT22;33618;49.972;8.242;2022-08-04T18:16:08;35.20;48.50
47857;DHT22;33618;49.972;8.242;2022-08-04T18:19:10;35.00;49.20
47857;DHT22;33618;49.972;8.242;2022-08-04T18:21:41;34.70;49.20
47857;DHT22;33618;49.972;8.242;2022-08-04T18:24:26;34.40;49.00
47857;DHT22;33618;49.972;8.242;2022-08-04T18:27:13;34.30;49.80
47857;DHT22;33618;49.972;8.242;2022-08-04T18:29:41;34.20;49.90
47857;DHT22;33618;49.972;8.242;2022-08-04T18:32:28;34.00;49.70
47857;DHT22;33618;49.972;8.242;2022-08-04T18:34:59;33.90;50.60
47857;DHT22;33618;49.972;8.242;2022-08-04T18:37:36;33.80;50.80
47857;DHT22;33618;49.972;8.242;2022-08-04T18:40:24;33.70;50.40
47857;DHT22;33618;49.972;8.242;2022-08-04T18:43:04;33.50;50.70
47857;DHT22;33618;49.972;8.242;2022-08-04T18:45:31;33.40;53.60
47857;DHT22;33618;49.972;8.242;2022-08-04T18:51:54;33.10;55.30
47857;DHT22;33618;49.972;8.242;2022-08-04T18:54:21;32.80;55.80
47857;DHT22;33618;49.972;8.242;2022-08-04T18:56:52;32.70;54.50
47857;DHT22;33618;49.972;8.242;2022-08-04T18:59:39;32.60;53.60
47857;DHT22;33618;49.972;8.242;2022-08-04T19:02:12;32.50;54.30
47857;DHT22;33618;49.972;8.242;2022-08-04T19:04:44;32.40;54.20
47857;DHT22;33618;49.972;8.242;2022-08-04T19:07:17;32.30;53.10
47857;DHT22;33618;49.972;8.242;2022-08-04T19:09:55;32.20;52.80
47857;DHT22;33618;49.972;8.242;2022-08-04T19:12:25;32.10;54.20
47857;DHT22;33618;49.972;8.242;2022-08-04T19:14:57;31.90;53.00
47857;DHT22;33618;49.972;8.242;2022-08-04T19:17:36;31.80;52.60
47857;DHT22;33618;49.972;8.242;2022-08-04T19:20:23;31.70;53.40
47857;DHT22;33618;49.972;8.242;2022-08-04T19:22:52;31.50;52.80
47857;DHT22;33618;49.972;8.242;2022-08-04T19:25:39;31.40;52.50
47857;DHT22;33618;49.972;8.242;2022-08-04T19:28:26;31.40;53.00
47857;DHT22;33618;49.972;8.242;2022-08-04T19:31:00;31.30;53.00
47857;DHT22;33618;49.972;8.242;2022-08-04T19:33:27;31.30;53.40
47857;DHT22;33618;49.972;8.242;2022-08-04T19:36:14;31.20;53.60
47857;DHT22;33618;49.972;8.242;2022-08-04T19:38:43;31.20;54.30
47857;DHT22;33618;49.972;8.242;2022-08-04T19:41:10;31.20;54.20
47857;DHT22;33618;49.972;8.242;2022-08-04T19:43:40;31.10;54.70
47857;DHT22;33618;49.972;8.242;2022-08-04T19:46:09;31.00;54.30
47857;DHT22;33618;49.972;8.242;2022-08-04T19:56:03;30.80;55.30
47857;DHT22;33618;49.972;8.242;2022-08-04T19:58:30;30.70;56.00
47857;DHT22;33618;49.972;8.242;2022-08-04T20:00:57;30.70;56.40
47857;DHT22;33618;49.972;8.242;2022-08-04T20:03:24;30.70;56.30
47857;DHT22;33618;49.972;8.242;2022-08-04T20:06:10;30.60;57.00
47857;DHT22;33618;49.972;8.242;2022-08-04T20:08:38;30.50;56.00
47857;DHT22;33618;49.972;8.242;2022-08-04T20:11:14;30.50;56.70
47857;DHT22;33618;49.972;8.242;2022-08-04T20:13:43;30.50;56.00
47857;DHT22;33618;49.972;8.242;2022-08-04T20:16:20;30.40;57.20
47857;DHT22;33618;49.972;8.242;2022-08-04T20:18:56;30.30;56.40
47857;DHT22;33618;49.972;8.242;2022-08-04T20:21:29;30.30;57.00
47857;DHT22;33618;49.972;8.242;2022-08-04T20:24:16;30.30;57.20
47857;DHT22;33618;49.972;8.242;2022-08-04T20:27:03;30.30;57.90
47857;DHT22;33618;49.972;8.242;2022-08-04T20:29:51;30.20;57.90
47857;DHT22;33618;49.972;8.242;2022-08-04T20:32:22;30.20;58.30
47857;DHT22;33618;49.972;8.242;2022-08-04T20:34:50;30.20;58.70
47857;DHT22;33618;49.972;8.242;2022-08-04T20:37:18;30.10;58.30
47857;DHT22;33618;49.972;8.242;2022-08-04T20:39:46;30.10;58.60
47857;DHT22;33618;49.972;8.242;2022-08-04T20:42:23;30.10;58.40
47857;DHT22;33618;49.972;8.242;2022-08-04T20:44:53;30.10;58.20
47857;DHT22;33618;49.972;8.242;2022-08-04T20:47:20;30.10;58.70
47857;DHT22;33618;49.972;8.242;2022-08-04T20:52:56;30.00;58.90
47857;DHT22;33618;49.972;8.242;2022-08-04T20:55:23;30.00;59.30
47857;DHT22;33618;49.972;8.242;2022-08-04T20:57:55;30.00;59.20
47857;DHT22;33618;49.972;8.242;2022-08-04T21:00:29;29.90;59.80
47857;DHT22;33618;49.972;8.242;2022-08-04T21:02:59;29.90;59.70
47857;DHT22;33618;49.972;8.242;2022-08-04T21:05:26;29.90;59.50
47857;DHT22;33618;49.972;8.242;2022-08-04T21:07:53;30.00;59.40
47857;DHT22;33618;49.972;8.242;2022-08-04T21:10:23;30.00;59.30
47857;DHT22;33618;49.972;8.242;2022-08-04T21:12:51;30.00;59.30
47857;DHT22;33618;49.972;8.242;2022-08-04T21:15:18;30.00;59.80
47857;DHT22;33618;49.972;8.242;2022-08-04T21:17:51;29.90;59.50
47857;DHT22;33618;49.972;8.242;2022-08-04T21:20:25;30.00;59.80
47857;DHT22;33618;49.972;8.242;2022-08-04T21:22:53;29.90;60.40
47857;DHT22;33618;49.972;8.242;2022-08-04T21:25:20;29.90;59.50
47857;DHT22;33618;49.972;8.242;2022-08-04T21:27:47;29.80;59.80
47857;DHT22;33618;49.972;8.242;2022-08-04T21:30:15;29.80;59.80
47857;DHT22;33618;49.972;8.242;2022-08-04T21:32:51;29.60;59.80
47857;DHT22;33618;49.972;8.242;2022-08-04T21:35:23;29.50;60.00
47857;DHT22;33618;49.972;8.242;2022-08-04T21:38:04;29.40;60.40
47857;DHT22;33618;49.972;8.242;2022-08-04T21:40:50;29.30;60.40
47857;DHT22;33618;49.972;8.242;2022-08-04T21:43:36;29.30;60.40
47857;DHT22;33618;49.972;8.242;2022-08-04T21:46:09;29.30;60.60
47857;DHT22;33618;49.972;8.242;2022-08-04T21:48:37;29.30;60.50
47857;DHT22;33618;49.972;8.242;2022-08-04T21:54:33;29.30;60.60
47857;DHT22;33618;49.972;8.242;2022-08-04T21:57:02;29.20;60.70
47857;DHT22;33618;49.972;8.242;2022-08-04T21:59:31;29.20;60.70
47857;DHT22;33618;49.972;8.242;2022-08-04T22:02:10;29.20;60.80
47857;DHT22;33618;49.972;8.242;2022-08-04T22:04:37;29.10;61.50
47857;DHT22;33618;49.972;8.242;2022-08-04T22:07:04;29.00;61.50
47857;DHT22;33618;49.972;8.242;2022-08-04T22:09:31;28.90;61.60
47857;DHT22;33618;49.972;8.242;2022-08-04T22:12:06;28.70;61.20
47857;DHT22;33618;49.972;8.242;2022-08-04T22:14:37;28.70;61.30
47857;DHT22;33618;49.972;8.242;2022-08-04T22:17:04;28.60;61.80
47857;DHT22;33618;49.972;8.242;2022-08-04T22:19:31;28.60;61.50
47857;DHT22;33618;49.972;8.242;2022-08-04T22:22:18;28.60;61.50
47857;DHT22;33618;49.972;8.242;2022-08-04T22:24:58;28.50;61.80
47857;DHT22;33618;49.972;8.242;2022-08-04T22:27:26;28.40;61.70
47857;DHT22;33618;49.972;8.242;2022-08-04T22:30:21;28.30;62.20
47857;DHT22;33618;49.972;8.242;2022-08-04T22:32:48;28.10;62.10
47857;DHT22;33618;49.972;8.242;2022-08-04T22:35:16;28.10;62.20
47857;DHT22;33618;49.972;8.242;2022-08-04T22:38:03;28.10;62.10
47857;DHT22;33618;49.972;8.242;2022-08-04T22:40:46;28.10;62.10
47857;DHT22;33618;49.972;8.242;2022-08-04T22:43:33;28.00;62.10
47857;DHT22;33618;49.972;8.242;2022-08-04T22:46:07;27.90;62.40
47857;DHT22;33618;49.972;8.242;2022-08-04T22:48:38;27.80;62.50
47857;DHT22;33618;49.972;8.242;2022-08-04T22:58:20;27.60;62.20
47857;DHT22;33618;49.972;8.242;2022-08-04T23:00:54;27.70;62.20